Time;durP1;ratioP1;P1;durP2;ratioP2;P2;SDS_P1;SDS_P2;PMS_P1;PMS_P2;Temp;Humidity;BMP_temperature;BMP_pressure;BME280_temperature;BME280_humidity;BME280_pressure;Samples;Min_cycle;Max_cycle;Signal;HPM_P1;HPM_P2
2022/03/25 06:03:49;;;;;;;28.10;15.55;;;4.60;84.80;;;;;;6223828;23;20017;-81
2022/03/25 06:06:15;;;;;;;29.50;15.73;;;4.70;84.40;;;;;;6198497;23;20014;-80
2022/03/25 06:08:41;;;;;;;28.50;15.75;;;4.80;84.00;;;;;;6172057;23;20004;-81
2022/03/25 06:11:07;;;;;;;28.50;17.08;;;4.90;83.90;;;;;;6197568;23;20072;-84
2022/03/25 06:13:32;;;;;;;32.78;17.10;;;5.00;83.90;;;;;;6172712;23;20004;-83
2022/03/25 06:15:58;;;;;;;27.05;16.13;;;5.10;83.60;;;;;;6196076;23;20202;-82
2022/03/25 06:18:26;;;;;;;27.70;16.17;;;5.10;83.40;;;;;;6172925;23;19992;-82
2022/03/25 06:21:00;;;;;;;30.70;15.95;;;5.20;83.20;;;;;;6197294;23;20358;-82
2022/03/25 06:23:29;;;;;;;26.42;15.73;;;5.20;82.60;;;;;;6224049;23;20079;-81
2022/03/25 06:25:55;;;;;;;29.13;16.83;;;5.40;83.30;;;;;;6196778;23;20009;-82
2022/03/25 06:28:26;;;;;;;26.02;15.45;;;5.60;82.00;;;;;;6172533;23;20013;-82
2022/03/25 06:31:01;;;;;;;28.48;16.48;;;5.80;81.90;;;;;;6171439;23;20021;-84
2022/03/25 06:33:41;;;;;;;31.77;17.02;;;5.90;81.10;;;;;;6222885;23;20008;-82
2022/03/25 06:36:09;;;;;;;32.63;16.80;;;5.90;80.10;;;;;;6197696;23;20047;-81
2022/03/25 06:38:35;;;;;;;29.92;16.48;;;5.90;79.90;;;;;;6196961;23;20004;-81
2022/03/25 06:41:02;;;;;;;26.80;16.20;;;6.00;80.30;;;;;;6172115;23;20009;-81
2022/03/25 06:43:28;;;;;;;27.98;16.05;;;6.20;79.80;;;;;;6223870;23;20001;-80
2022/03/25 06:45:59;;;;;;;27.92;16.38;;;6.20;79.20;;;;;;6169478;23;20016;-80
2022/03/25 06:48:28;;;;;;;29.42;16.15;;;6.30;79.20;;;;;;6173479;23;20047;-82
2022/03/25 06:51:10;;;;;;;32.15;16.90;;;6.30;79.60;;;;;;6222330;23;19988;-80
2022/03/25 06:53:37;;;;;;;30.45;16.33;;;6.50;79.00;;;;;;6197838;23;20015;-80
2022/03/25 06:56:04;;;;;;;29.50;16.75;;;6.60;78.10;;;;;;6197094;23;20004;-79
2022/03/25 06:58:31;;;;;;;31.52;17.00;;;6.70;77.80;;;;;;6172801;23;20048;-82
2022/03/25 07:00:57;;;;;;;28.08;16.00;;;6.70;77.70;;;;;;6171423;23;20017;-80
2022/03/25 07:03:23;;;;;;;27.38;16.10;;;6.80;77.10;;;;;;6223041;23;20008;-80
2022/03/25 07:05:52;;;;;;;32.35;16.77;;;6.90;76.70;;;;;;6223337;23;20052;-83
2022/03/25 07:08:21;;;;;;;28.05;16.10;;;6.90;76.10;;;;;;6220210;23;20031;-83
2022/03/25 07:10:48;;;;;;;35.45;16.77;;;7.00;75.90;;;;;;6223619;23;20271;-83
2022/03/25 07:13:14;;;;;;;37.58;17.38;;;7.10;75.70;;;;;;6197351;23;20286;-81
2022/03/25 07:15:41;;;;;;;32.60;17.48;;;7.20;75.60;;;;;;6196540;23;20024;-83
2022/03/25 07:18:07;;;;;;;30.02;15.68;;;7.30;75.60;;;;;;6223697;23;20266;-82
2022/03/25 07:20:33;;;;;;;30.20;17.58;;;7.50;75.10;;;;;;6197323;23;20012;-82
2022/03/25 07:22:59;;;;;;;29.92;16.60;;;7.50;74.40;;;;;;6196840;23;20091;-83
2022/03/25 07:25:27;;;;;;;33.15;16.85;;;7.60;74.40;;;;;;6197238;23;20009;-81
2022/03/25 07:27:53;;;;;;;;;;;7.70;74.30;;;;;;6198031;23;19997;-83
2022/03/25 07:30:19;;;;;;;29.38;16.27;;;7.80;73.80;;;;;;6223166;23;19907;-80
2022/03/25 07:32:51;;;;;;;30.42;16.40;;;7.90;73.30;;;;;;6221638;23;20016;-82
2022/03/25 07:35:28;;;;;;;29.83;15.93;;;7.90;73.10;;;;;;6222707;23;20000;-82
2022/03/25 07:38:07;;;;;;;35.03;17.50;;;8.20;72.80;;;;;;6223114;23;20004;-82
2022/03/25 07:41:01;;;;;;;29.73;16.80;;;8.40;72.80;;;;;;6197020;23;20204;-83
2022/03/25 07:43:33;;;;;;;35.85;18.20;;;8.50;71.90;;;;;;6222644;23;20005;-84
2022/03/25 07:45:59;;;;;;;35.63;18.50;;;8.60;71.40;;;;;;6159961;23;20065;-85
2022/03/25 07:48:24;;;;;;;34.88;18.08;;;8.70;70.90;;;;;;6161452;23;20038;-83
2022/03/25 07:50:50;;;;;;;33.72;17.88;;;8.90;71.00;;;;;;6160826;23;20048;-83
2022/03/25 07:53:17;;;;;;;31.52;17.30;;;8.90;70.50;;;;;;6161484;23;20006;-83
2022/03/25 07:55:44;;;;;;;34.22;17.63;;;9.10;70.50;;;;;;6162449;23;20190;-84
2022/03/25 07:58:10;;;;;;;33.25;18.35;;;9.30;69.90;;;;;;6163933;23;20015;-84
2022/03/25 08:00:36;;;;;;;33.90;18.88;;;9.50;69.80;;;;;;6165013;23;20317;-81
2022/03/25 08:03:01;;;;;;;35.22;18.40;;;9.40;69.00;;;;;;6183989;23;20012;-82
2022/03/25 08:05:27;;;;;;;31.38;18.30;;;9.50;69.00;;;;;;6194881;23;20211;-84
2022/03/25 08:07:56;;;;;;;32.38;17.65;;;9.60;68.90;;;;;;6169055;23;20348;-84
2022/03/25 08:10:28;;;;;;;31.42;18.45;;;9.80;68.60;;;;;;6168673;23;20009;-82
2022/03/25 08:13:01;;;;;;;31.65;17.88;;;9.80;68.10;;;;;;6168290;23;20064;-83
2022/03/25 08:15:28;;;;;;;37.88;18.80;;;10.00;67.80;;;;;;6168780;23;20016;-81
2022/03/25 08:18:00;;;;;;;31.48;18.63;;;10.10;67.80;;;;;;6196796;23;20019;-84
2022/03/25 08:20:41;;;;;;;34.90;17.63;;;10.20;67.30;;;;;;6203421;23;20012;-82
2022/03/25 08:27:48;;;;;;;35.67;18.33;;;10.40;66.90;;;;;;6212204;23;20009;-81
2022/03/25 08:28:46;;;;;;;32.47;18.33;;;10.70;66.70;;;;;;6203392;22;20076;-83
2022/03/25 08:31:13;;;;;;;35.58;19.55;;;10.60;66.20;;;;;;6269877;22;20132;-82
2022/03/25 08:33:38;;;;;;;34.30;18.27;;;10.80;66.10;;;;;;6215604;23;20008;-82
2022/03/25 08:36:04;;;;;;;31.02;17.35;;;10.80;66.00;;;;;;6255922;23;20346;-82
2022/03/25 08:38:30;;;;;;;34.10;19.38;;;11.00;65.70;;;;;;6256233;23;20059;-82
2022/03/25 08:40:56;;;;;;;34.65;19.63;;;11.20;65.20;;;;;;6232572;23;20199;-82
2022/03/25 08:43:22;;;;;;;35.00;20.45;;;11.10;65.00;;;;;;6207574;23;20016;-82
2022/03/25 08:45:47;;;;;;;35.35;19.13;;;11.20;65.00;;;;;;6256490;22;20065;-82
2022/03/25 08:48:13;;;;;;;38.33;20.50;;;11.30;64.60;;;;;;6257855;23;19992;-83
2022/03/25 08:50:39;;;;;;;34.97;20.23;;;11.40;64.10;;;;;;6255651;23;20008;-81
2022/03/25 08:53:06;;;;;;;35.67;19.70;;;11.50;63.60;;;;;;6229777;23;20237;-81
2022/03/25 08:55:33;;;;;;;34.13;20.05;;;11.60;63.50;;;;;;6229582;23;20067;-80
2022/03/25 08:57:59;;;;;;;36.92;21.23;;;11.60;63.50;;;;;;6255756;23;20011;-82
2022/03/25 09:00:25;;;;;;;34.08;19.98;;;11.90;63.50;;;;;;6253574;22;20060;-85
2022/03/25 09:02:52;;;;;;;38.03;19.83;;;12.00;62.60;;;;;;6248771;23;20008;-82
2022/03/25 09:05:18;;;;;;;37.78;20.42;;;12.10;62.30;;;;;;6225805;23;20007;-82
2022/03/25 09:07:44;;;;;;;35.33;20.77;;;12.20;61.80;;;;;;6225139;23;20008;-81
2022/03/25 09:10:14;;;;;;;42.17;20.88;;;12.30;61.20;;;;;;6274588;22;19989;-82
2022/03/25 09:12:42;;;;;;;37.55;21.00;;;12.50;61.60;;;;;;6225056;23;20068;-82
2022/03/25 09:15:09;;;;;;;38.17;21.07;;;12.70;61.40;;;;;;6212285;22;20080;-82
2022/03/25 09:17:35;;;;;;;35.30;21.13;;;12.80;61.00;;;;;;6273131;22;19997;-82
2022/03/25 09:20:03;;;;;;;44.60;21.33;;;13.00;60.50;;;;;;6223544;23;20056;-83
2022/03/25 09:22:31;;;;;;;38.53;21.73;;;13.10;60.30;;;;;;6224210;23;20043;-82
2022/03/25 09:24:57;;;;;;;41.58;21.80;;;13.30;58.80;;;;;;6198698;23;20064;-82
2022/03/25 09:27:23;;;;;;;37.80;22.13;;;13.30;59.40;;;;;;6249338;23;19997;-83
2022/03/25 09:29:49;;;;;;;37.95;21.33;;;13.40;59.40;;;;;;6199845;23;20012;-82
2022/03/25 09:32:17;;;;;;;37.80;22.02;;;13.50;58.80;;;;;;6223472;23;20028;-83
2022/03/25 09:37:37;;;;;;;41.75;21.60;;;13.60;57.50;;;;;;6225496;23;20000;-84
2022/03/25 09:40:05;;;;;;;40.92;21.63;;;13.80;57.80;;;;;;6224372;23;20113;-84
2022/03/25 09:42:33;;;;;;;35.83;21.55;;;13.90;56.50;;;;;;6198976;23;20016;-81
2022/03/25 09:45:04;;;;;;;37.40;22.00;;;13.90;56.10;;;;;;6223482;23;20001;-84
2022/03/25 09:47:32;;;;;;;39.33;21.63;;;14.10;56.20;;;;;;6274204;22;20019;-84
2022/03/25 09:49:59;;;;;;;39.55;21.95;;;14.10;56.10;;;;;;6274671;22;20099;-84
2022/03/25 09:52:29;;;;;;;41.22;21.92;;;14.30;56.10;;;;;;6199492;23;20128;-84
2022/03/25 09:54:55;;;;;;;36.90;21.30;;;14.40;55.50;;;;;;6200356;23;20067;-82
2022/03/25 09:57:27;;;;;;;37.30;21.70;;;14.50;55.50;;;;;;6224651;23;20027;-83
2022/03/25 10:00:50;;;;;;;36.63;21.10;;;14.60;55.40;;;;;;6223278;23;20016;-80
2022/03/25 10:03:36;;;;;;;40.70;22.02;;;14.70;55.20;;;;;;6161566;23;20080;-81
2022/03/25 10:06:04;;;;;;;37.75;21.85;;;15.00;54.40;;;;;;6224543;23;20282;-80
2022/03/25 10:08:33;;;;;;;38.22;22.33;;;15.10;53.90;;;;;;6273762;22;20016;-81
2022/03/25 10:11:19;;;;;;;37.83;21.45;;;15.20;53.80;;;;;;6197537;23;20015;-81
2022/03/25 10:13:45;;;;;;;34.65;21.20;;;15.30;54.00;;;;;;6223160;23;20059;-80
2022/03/25 10:16:31;;;;;;;36.58;22.90;;;15.50;53.20;;;;;;6273540;22;20298;-82
2022/03/25 10:18:58;;;;;;;38.58;24.15;;;15.60;52.70;;;;;;6223009;23;20135;-82
2022/03/25 10:21:24;;;;;;;35.13;22.13;;;15.70;52.60;;;;;;6223823;23;20046;-81
2022/03/25 10:23:54;;;;;;;36.60;23.45;;;15.80;52.40;;;;;;6223618;23;20334;-81
2022/03/25 10:26:34;;;;;;;37.35;23.10;;;15.80;52.30;;;;;;6224601;23;20076;-82
2022/03/25 10:29:00;;;;;;;38.45;24.02;;;15.90;52.80;;;;;;6223486;23;20032;-82
2022/03/25 10:31:26;;;;;;;37.75;22.40;;;16.10;52.50;;;;;;6272983;22;20078;-82
2022/03/25 10:33:57;;;;;;;40.83;24.08;;;16.20;52.40;;;;;;6273527;22;20286;-81
2022/03/25 10:36:25;;;;;;;39.40;22.58;;;16.10;52.40;;;;;;6273978;22;20007;-81
2022/03/25 10:39:11;;;;;;;39.67;23.70;;;16.30;52.60;;;;;;6223148;23;20055;-81
2022/03/25 10:41:39;;;;;;;39.60;24.40;;;16.50;52.50;;;;;;6197842;23;20004;-81
2022/03/25 10:44:08;;;;;;;34.92;22.90;;;16.60;52.10;;;;;;6273025;22;20063;-82
2022/03/25 11:01:37;;;;;;;40.15;24.90;;;17.80;51.10;;;;;;6017353;23;20019;-78
2022/03/25 11:04:04;;;;;;;;;;;18.20;50.60;;;;;;5993920;23;20320;-79
2022/03/25 11:06:48;;;;;;;35.80;23.48;;;18.30;50.40;;;;;;6161925;23;19956;-79
2022/03/25 11:09:29;;;;;;;35.53;22.80;;;18.50;49.00;;;;;;6162272;23;20005;-79
2022/03/25 11:13:03;;;;;;;34.90;22.58;;;19.20;48.50;;;;;;6160924;23;20330;-80
2022/03/25 11:15:52;;;;;;;34.00;21.88;;;20.30;47.30;;;;;;6100548;23;20012;-80
2022/03/25 11:21:59;;;;;;;33.22;21.48;;;22.30;44.30;;;;;;6161234;23;20231;-80
2022/03/25 11:24:32;;;;;;;30.38;22.08;;;23.60;42.60;;;;;;6161861;23;20068;-79
2022/03/25 11:27:38;;;;;;;30.75;22.60;;;24.20;42.10;;;;;;6163286;23;20020;-80
2022/03/25 12:01:44;;;;;;;27.08;20.17;;;31.10;36.10;;;;;;6176977;23;20031;-81
2022/03/25 16:04:39;;;;;;;23.63;19.15;;;32.80;32.80;;;;;;6140152;22;20068;-81
2022/03/25 16:07:08;;;;;;;23.80;19.75;;;32.20;33.30;;;;;;6180461;23;20012;-81
2022/03/25 16:10:26;;;;;;;24.75;20.35;;;32.20;33.40;;;;;;6197254;23;20052;-81
2022/03/25 16:12:52;;;;;;;23.50;19.70;;;30.90;33.50;;;;;;6191992;23;20009;-80
2022/03/25 16:19:08;;;;;;;25.65;19.50;;;30.20;34.30;;;;;;6197699;23;20091;-80
2022/03/25 16:22:05;;;;;;;26.20;19.92;;;30.00;34.70;;;;;;6179859;23;20329;-80
2022/03/25 16:24:56;;;;;;;28.48;20.45;;;30.00;34.30;;;;;;6127316;23;20034;-78
2022/03/25 16:31:34;;;;;;;27.55;20.15;;;28.80;34.70;;;;;;6105370;23;20085;-80
2022/03/25 16:38:27;;;;;;;28.35;21.10;;;27.40;35.80;;;;;;6104863;23;20021;-81
2022/03/25 16:41:09;;;;;;;;;;;;;;;;;;;;;
2022/03/25 16:43:42;;;;;;;27.40;19.85;;;26.90;36.10;;;;;;6130578;23;20014;-82
2022/03/25 16:49:41;;;;;;;27.40;20.70;;;25.90;36.70;;;;;;6106924;23;20022;-82
2022/03/25 16:52:22;;;;;;;26.13;20.00;;;24.70;37.90;;;;;;6129897;23;20011;-81
2022/03/25 16:58:50;;;;;;;28.75;19.48;;;22.70;40.00;;;;;;6104890;23;20050;-82
2022/03/25 17:01:53;;;;;;;27.58;20.23;;;21.80;40.70;;;;;;6148041;23;20009;-82
2022/03/25 17:04:32;;;;;;;30.90;20.02;;;21.10;41.40;;;;;;6197778;23;20871;-83
2022/03/25 17:07:46;;;;;;;30.67;20.73;;;20.70;42.40;;;;;;6224992;23;20058;-82
2022/03/25 17:17:30;;;;;;;30.77;20.80;;;19.50;44.00;;;;;;6150041;23;20052;-82
2022/03/25 17:19:58;;;;;;;33.38;20.17;;;19.20;44.70;;;;;;6149917;23;20014;-81
2022/03/25 17:22:33;;;;;;;32.17;19.98;;;18.90;45.20;;;;;;6147729;23;20017;-82
2022/03/25 17:25:03;;;;;;;35.33;21.05;;;18.70;45.20;;;;;;6111518;23;20010;-82
2022/03/25 17:27:32;;;;;;;30.80;20.50;;;18.50;45.70;;;;;;6134381;23;20013;-83
2022/03/25 17:30:01;;;;;;;34.13;21.25;;;18.40;45.70;;;;;;6086007;23;20223;-83
2022/03/25 18:27:57;;;;;;;32.80;19.93;;;15.40;51.50;;;;;;6121149;23;20145;-81
2022/03/25 18:30:32;;;;;;;31.77;20.38;;;15.10;51.70;;;;;;6133432;23;20005;-82
2022/03/25 18:33:48;;;;;;;33.67;21.35;;;15.00;52.10;;;;;;6073554;23;20021;-80
2022/03/25 18:36:40;;;;;;;30.73;19.27;;;14.90;52.50;;;;;;6133206;23;20012;-81
2022/03/25 18:39:58;;;;;;;31.90;20.50;;;14.80;52.80;;;;;;6110243;23;20025;-81
2022/03/25 18:47:21;;;;;;;34.50;20.88;;;14.50;53.30;;;;;;6045269;23;20075;-79
2022/03/25 18:50:36;;;;;;;36.07;20.53;;;14.40;53.40;;;;;;6044387;23;20019;-80
2022/03/25 18:53:06;;;;;;;35.13;20.42;;;14.30;53.30;;;;;;6045729;23;20015;-78
2022/03/25 18:55:41;;;;;;;32.45;19.85;;;14.30;53.70;;;;;;6045433;23;20035;-81
2022/03/25 18:58:15;;;;;;;36.00;21.08;;;14.20;53.70;;;;;;6045979;23;20003;-80
2022/03/25 19:01:26;;;;;;;36.97;20.38;;;14.10;53.80;;;;;;6021686;23;20087;-80
2022/03/25 19:04:30;;;;;;;36.78;22.58;;;14.00;54.30;;;;;;5943961;24;20031;-81
2022/03/25 19:07:26;;;;;;;33.15;20.52;;;13.80;54.40;;;;;;5994287;23;20056;-81
2022/03/25 19:10:05;;;;;;;35.53;21.45;;;13.70;54.60;;;;;;5994014;23;20012;-79
2022/03/25 19:13:01;;;;;;;36.42;21.33;;;13.80;54.80;;;;;;5999234;23;20015;-81
2022/03/25 19:15:48;;;;;;;39.60;21.95;;;13.70;54.80;;;;;;5994470;23;20015;-79
2022/03/25 19:18:54;;;;;;;35.85;21.80;;;13.70;54.70;;;;;;6002731;23;20079;-81
2022/03/25 19:21:24;;;;;;;39.33;23.30;;;13.60;54.60;;;;;;6081312;23;20064;-82
2022/03/25 19:24:06;;;;;;;36.08;22.15;;;13.60;54.60;;;;;;6111882;23;20013;-80
2022/03/25 19:26:51;;;;;;;40.80;23.15;;;13.40;54.80;;;;;;6108761;23;20010;-80
2022/03/25 19:29:49;;;;;;;40.22;23.02;;;13.40;55.30;;;;;;6133827;23;20048;-81
2022/03/25 19:32:41;;;;;;;37.50;22.10;;;13.20;55.30;;;;;;6111380;23;20345;-83
2022/03/25 19:52:04;;;;;;;;;;;;;;;;;;;;;
2022/03/25 19:59:35;;;;;;;;;;;;;;;;;;;;;
2022/03/25 20:14:47;;;;;;;38.25;22.33;;;12.60;56.90;;;;;;5884547;24;20077;-81
2022/03/25 20:41:51;;;;;;;42.30;23.42;;;11.60;60.60;;;;;;5990141;24;20003;-82
2022/03/25 20:44:21;;;;;;;45.05;24.83;;;11.50;61.20;;;;;;5966181;24;20076;-80
